Time;durP1;ratioP1;P1;durP2;ratioP2;P2;SDS_P1;SDS_P2;PMS_P1;PMS_P2;Temp;Humidity;BMP_temperature;BMP_pressure;BME280_temperature;BME280_humidity;BME280_pressure;Samples;Min_cycle;Max_cycle;Signal;HPM_P1;HPM_P2
2024/03/14 00:01:31;;;;;;;23.60;13.88;;;8.80;99.90;;;;;;4920012;28;20038;-46
2024/03/14 00:03:56;;;;;;;19.40;12.63;;;8.80;99.90;;;;;;4943585;28;20391;-50
2024/03/14 00:06:22;;;;;;;23.90;12.85;;;8.90;99.90;;;;;;4916224;28;20097;-49
2024/03/14 00:08:48;;;;;;;18.25;12.65;;;8.80;99.90;;;;;;4935942;28;20149;-56
2024/03/14 00:11:14;;;;;;;24.15;13.70;;;8.80;99.90;;;;;;4957113;28;20104;-46
2024/03/14 00:13:39;;;;;;;20.30;12.75;;;8.80;99.90;;;;;;4913810;28;21973;-47
2024/03/14 00:16:05;;;;;;;19.00;12.63;;;8.80;99.90;;;;;;4945270;28;20109;-47
2024/03/14 00:18:31;;;;;;;19.17;12.48;;;8.80;99.90;;;;;;4911918;28;20034;-47
2024/03/14 00:20:57;;;;;;;24.70;14.18;;;8.80;99.90;;;;;;4908331;28;20068;-48
2024/03/14 00:23:23;;;;;;;19.13;12.15;;;8.70;99.90;;;;;;4968899;28;20026;-45
2024/03/14 00:25:51;;;;;;;21.48;13.00;;;8.70;99.90;;;;;;4907017;28;20034;-47
2024/03/14 00:28:20;;;;;;;21.13;12.68;;;8.80;99.90;;;;;;4942374;28;20030;-52
2024/03/14 00:30:46;;;;;;;23.90;14.30;;;8.80;99.90;;;;;;4929294;28;20026;-47
2024/03/14 00:33:11;;;;;;;22.35;12.98;;;8.80;99.90;;;;;;4906379;28;21192;-46
2024/03/14 00:35:39;;;;;;;21.50;13.45;;;8.80;99.90;;;;;;4965358;28;20457;-45
2024/03/14 00:38:05;;;;;;;22.42;14.25;;;8.70;99.90;;;;;;4906475;28;20049;-47
2024/03/14 00:40:33;;;;;;;24.23;12.80;;;8.80;99.90;;;;;;4902258;28;20498;-44
2024/03/14 00:42:58;;;;;;;23.52;13.15;;;8.80;99.90;;;;;;4941040;28;20034;-46
2024/03/14 00:45:24;;;;;;;23.23;13.55;;;8.80;99.90;;;;;;4899562;28;20041;-46
2024/03/14 00:47:50;;;;;;;25.55;14.68;;;8.80;99.90;;;;;;4929216;28;20036;-54
2024/03/14 00:50:15;;;;;;;23.35;13.82;;;8.80;99.90;;;;;;4935124;28;20038;-44
2024/03/14 00:52:41;;;;;;;25.60;14.40;;;8.90;99.90;;;;;;4899639;28;20618;-45
2024/03/14 00:55:09;;;;;;;22.85;14.02;;;8.90;99.90;;;;;;4937981;28;20072;-48
2024/03/14 00:57:35;;;;;;;27.02;14.15;;;8.90;99.90;;;;;;4896681;28;20030;-45
2024/03/14 01:00:00;;;;;;;27.00;16.08;;;8.90;99.90;;;;;;4899716;28;20040;-47
2024/03/14 01:02:26;;;;;;;35.35;16.00;;;8.90;99.90;;;;;;4963524;28;20030;-44
2024/03/14 01:04:54;;;;;;;28.85;16.23;;;8.90;99.90;;;;;;4893566;28;20036;-48
2024/03/14 01:07:23;;;;;;;26.98;15.07;;;9.00;99.90;;;;;;4920170;28;20116;-51
2024/03/14 01:09:48;;;;;;;26.33;15.32;;;9.00;99.90;;;;;;4922524;28;20676;-44
2024/03/14 01:12:14;;;;;;;28.65;14.57;;;8.90;99.90;;;;;;4891607;28;21664;-46
2024/03/14 01:14:40;;;;;;;29.13;15.70;;;9.00;99.90;;;;;;4955783;28;20037;-46
2024/03/14 01:17:05;;;;;;;27.77;15.13;;;9.00;99.90;;;;;;4950657;28;20116;-46
2024/03/14 01:19:32;;;;;;;27.42;15.88;;;9.00;99.90;;;;;;4924961;28;20064;-49
2024/03/14 01:21:57;;;;;;;28.67;16.00;;;9.00;99.90;;;;;;4991659;28;20034;-45
2024/03/14 01:24:23;;;;;;;29.85;15.23;;;9.00;99.90;;;;;;4921983;28;20549;-49
2024/03/14 01:26:49;;;;;;;28.08;15.93;;;9.10;99.90;;;;;;4941154;28;20036;-46
2024/03/14 01:29:16;;;;;;;31.20;17.85;;;9.10;99.90;;;;;;4950179;28;20101;-46
2024/03/14 01:31:42;;;;;;;28.33;16.58;;;9.10;99.90;;;;;;4939967;28;22030;-49
2024/03/14 01:34:08;;;;;;;28.80;16.17;;;9.10;99.90;;;;;;4953569;28;20121;-49
2024/03/14 01:36:39;;;;;;;30.02;16.33;;;9.10;99.90;;;;;;4944302;28;20105;-48
2024/03/14 01:39:05;;;;;;;30.92;18.35;;;9.10;99.90;;;;;;4923529;28;20608;-48
2024/03/14 01:41:31;;;;;;;28.17;16.90;;;9.10;99.90;;;;;;4942936;28;20034;-51
2024/03/14 01:44:00;;;;;;;30.92;17.90;;;9.20;99.90;;;;;;4900402;28;20459;-51
2024/03/14 01:46:28;;;;;;;28.85;17.40;;;9.20;99.90;;;;;;4928105;28;20030;-53
2024/03/14 01:48:55;;;;;;;27.25;17.17;;;9.10;99.90;;;;;;4977725;28;20027;-48
2024/03/14 01:51:25;;;;;;;31.63;17.80;;;9.20;99.90;;;;;;4903357;28;20483;-50
2024/03/14 01:53:52;;;;;;;28.27;16.15;;;9.20;99.90;;;;;;4948206;28;20034;-49
2024/03/14 01:56:22;;;;;;;35.63;18.83;;;9.20;99.90;;;;;;4933580;28;20075;-47
2024/03/14 01:58:50;;;;;;;33.22;18.92;;;9.20;99.90;;;;;;4893656;28;21480;-47
2024/03/14 02:01:17;;;;;;;34.72;17.98;;;9.20;99.90;;;;;;4978883;28;20034;-47
2024/03/14 02:03:56;;;;;;;33.10;17.95;;;9.20;99.90;;;;;;4937138;28;20159;-57
2024/03/14 02:06:33;;;;;;;31.23;17.27;;;9.20;99.90;;;;;;4943143;28;20037;-50
2024/03/14 02:08:59;;;;;;;33.50;18.60;;;9.20;99.90;;;;;;4928125;28;20027;-47
2024/03/14 02:11:24;;;;;;;30.08;16.90;;;9.20;99.90;;;;;;4931060;28;20018;-47
2024/03/14 02:13:50;;;;;;;27.10;16.55;;;9.30;99.90;;;;;;4921484;28;20019;-52
2024/03/14 02:16:15;;;;;;;30.23;17.10;;;9.20;99.90;;;;;;4977281;28;20050;-46
2024/03/14 02:18:42;;;;;;;34.33;18.08;;;9.20;99.90;;;;;;4942272;28;20030;-56
2024/03/14 02:21:08;;;;;;;28.17;16.50;;;9.30;99.90;;;;;;4895010;28;21732;-47
2024/03/14 02:23:34;;;;;;;31.58;18.42;;;9.30;99.90;;;;;;4925633;28;20665;-46
2024/03/14 02:26:00;;;;;;;28.05;17.45;;;9.30;99.90;;;;;;4917768;28;20109;-47
2024/03/14 02:28:26;;;;;;;33.25;18.10;;;9.30;99.90;;;;;;4889662;28;20034;-56
2024/03/14 02:30:51;;;;;;;28.42;17.77;;;9.30;99.90;;;;;;4970180;28;20030;-48
2024/03/14 02:33:17;;;;;;;32.58;17.80;;;9.30;99.90;;;;;;4934265;28;20038;-48
2024/03/14 02:35:43;;;;;;;27.92;17.42;;;9.30;99.90;;;;;;4921765;28;20521;-47
2024/03/14 02:38:08;;;;;;;33.90;17.73;;;9.30;99.90;;;;;;4915175;28;20045;-49
2024/03/14 02:40:35;;;;;;;29.83;17.42;;;9.30;99.90;;;;;;4901879;28;20041;-46
2024/03/14 02:43:00;;;;;;;31.27;17.70;;;9.30;99.90;;;;;;4975423;28;20033;-51
2024/03/14 02:45:26;;;;;;;28.17;17.00;;;9.40;99.90;;;;;;4911911;28;20042;-47
2024/03/14 02:47:51;;;;;;;25.48;15.60;;;9.40;99.90;;;;;;4919763;28;20407;-47
2024/03/14 02:50:18;;;;;;;29.20;18.40;;;9.30;99.90;;;;;;4919123;28;20022;-46
2024/03/14 02:52:45;;;;;;;31.13;17.52;;;9.40;99.90;;;;;;4900687;28;21400;-47
2024/03/14 02:55:11;;;;;;;28.08;16.90;;;9.30;99.90;;;;;;4979118;28;20057;-49
2024/03/14 02:57:36;;;;;;;28.30;17.63;;;9.30;99.90;;;;;;4943049;28;20609;-51
2024/03/14 03:00:05;;;;;;;29.55;17.88;;;9.40;99.90;;;;;;4918780;28;20030;-48
2024/03/14 03:02:31;;;;;;;27.10;16.13;;;9.30;99.90;;;;;;4922519;28;20034;-50
2024/03/14 03:04:56;;;;;;;26.65;16.02;;;9.40;99.90;;;;;;4914854;28;20057;-47
2024/03/14 03:07:22;;;;;;;30.35;17.60;;;9.40;99.90;;;;;;4956661;28;20029;-54
2024/03/14 03:09:49;;;;;;;27.50;17.50;;;9.30;99.90;;;;;;4947482;28;20032;-48
2024/03/14 03:12:14;;;;;;;28.27;15.85;;;9.40;99.90;;;;;;4941902;28;20026;-49
2024/03/14 03:14:40;;;;;;;30.15;17.52;;;9.30;99.90;;;;;;4915176;28;20040;-47
2024/03/14 03:17:05;;;;;;;27.95;16.45;;;9.40;99.90;;;;;;4915954;28;20537;-47
2024/03/14 03:19:31;;;;;;;26.73;16.30;;;9.40;99.90;;;;;;4965589;28;20044;-50
2024/03/14 03:21:59;;;;;;;28.13;17.33;;;9.40;99.90;;;;;;4977349;28;20508;-46
2024/03/14 03:24:25;;;;;;;29.95;16.88;;;9.40;99.90;;;;;;4935931;28;20034;-49
2024/03/14 03:26:51;;;;;;;26.83;16.00;;;9.40;99.90;;;;;;4921710;28;20026;-46
2024/03/14 03:29:16;;;;;;;24.50;16.05;;;9.40;99.90;;;;;;4949900;28;20073;-45
2024/03/14 03:31:42;;;;;;;24.45;16.13;;;9.40;99.90;;;;;;4908694;28;20782;-46
2024/03/14 03:34:07;;;;;;;27.10;16.65;;;9.40;99.90;;;;;;4975639;28;20513;-49
2024/03/14 03:36:34;;;;;;;24.83;15.40;;;9.40;99.90;;;;;;4933971;28;20038;-47
2024/03/14 03:39:00;;;;;;;23.80;15.18;;;9.40;99.90;;;;;;4909672;28;20124;-48
2024/03/14 03:41:29;;;;;;;26.05;15.73;;;9.40;99.90;;;;;;4907055;28;20576;-49
2024/03/14 03:43:56;;;;;;;24.40;15.90;;;9.40;99.90;;;;;;4907711;28;20104;-49
2024/03/14 03:46:21;;;;;;;23.45;15.27;;;9.40;99.90;;;;;;4951659;28;20166;-55
2024/03/14 03:48:47;;;;;;;24.60;14.77;;;9.40;99.90;;;;;;4934444;28;20084;-53
2024/03/14 03:51:13;;;;;;;21.90;14.80;;;9.40;99.90;;;;;;4936112;28;20030;-46
2024/03/14 03:53:38;;;;;;;23.63;14.48;;;9.40;99.90;;;;;;4974397;28;20033;-49
2024/03/14 03:56:04;;;;;;;19.42;12.27;;;9.40;99.90;;;;;;4973475;28;20560;-46
2024/03/14 03:58:32;;;;;;;23.08;14.82;;;9.40;99.90;;;;;;4968229;28;20030;-47
2024/03/14 04:01:06;;;;;;;19.88;14.45;;;9.40;99.90;;;;;;4965901;28;20050;-46
2024/03/14 04:03:34;;;;;;;19.20;13.32;;;9.40;99.90;;;;;;4993751;28;20045;-46
2024/03/14 04:06:00;;;;;;;20.60;13.60;;;9.40;99.90;;;;;;4964158;28;20034;-46
2024/03/14 04:08:26;;;;;;;20.45;13.85;;;9.40;99.90;;;;;;4963707;28;20026;-47
2024/03/14 04:10:51;;;;;;;22.50;14.45;;;9.40;99.90;;;;;;4970240;28;20042;-47
2024/03/14 04:13:17;;;;;;;20.58;13.68;;;9.40;99.90;;;;;;4959303;28;20026;-48
2024/03/14 04:15:43;;;;;;;20.40;13.55;;;9.40;99.90;;;;;;4980836;28;20061;-54
2024/03/14 04:18:09;;;;;;;20.65;13.75;;;9.40;99.90;;;;;;4973756;28;20497;-46
2024/03/14 04:20:37;;;;;;;24.20;14.27;;;9.40;99.90;;;;;;4959928;28;20036;-50
2024/03/14 04:23:05;;;;;;;22.25;13.88;;;9.40;99.90;;;;;;4970856;28;20046;-51
2024/03/14 04:25:33;;;;;;;19.35;13.30;;;9.40;99.90;;;;;;4957404;28;20104;-52
2024/03/14 04:27:59;;;;;;;20.95;13.18;;;9.40;99.90;;;;;;4951970;28;20422;-49
2024/03/14 04:30:27;;;;;;;20.13;13.52;;;9.40;99.90;;;;;;4992029;28;20117;-48
2024/03/14 04:32:53;;;;;;;20.42;13.82;;;9.40;99.90;;;;;;4956247;28;20115;-50
2024/03/14 04:35:22;;;;;;;19.65;12.55;;;9.40;99.90;;;;;;4954659;28;20519;-53
2024/03/14 04:37:49;;;;;;;20.42;13.68;;;9.40;99.90;;;;;;4967653;28;20387;-47
2024/03/14 04:40:17;;;;;;;17.92;13.05;;;9.40;99.90;;;;;;4953046;28;20057;-50
2024/03/14 04:42:46;;;;;;;16.52;12.00;;;9.40;99.90;;;;;;4986548;28;20037;-55
2024/03/14 04:45:17;;;;;;;20.60;13.57;;;9.40;99.90;;;;;;4980675;28;20486;-50
2024/03/14 04:47:46;;;;;;;19.13;13.43;;;9.40;99.90;;;;;;4952444;28;20033;-50
2024/03/14 04:50:13;;;;;;;17.25;12.45;;;9.40;99.90;;;;;;4964987;28;20048;-48
2024/03/14 04:52:42;;;;;;;22.77;13.18;;;9.40;99.90;;;;;;4953033;28;20084;-48
2024/03/14 04:55:11;;;;;;;18.55;12.48;;;9.50;99.90;;;;;;4950605;28;21642;-47
2024/03/14 04:57:40;;;;;;;21.45;13.00;;;9.40;99.90;;;;;;4984207;28;20034;-47
2024/03/14 05:02:48;;;;;;;18.98;13.02;;;9.50;99.90;;;;;;4964732;28;20029;-46
2024/03/14 05:05:15;;;;;;;18.17;13.00;;;9.50;99.90;;;;;;4961103;28;20062;-50
2024/03/14 05:07:40;;;;;;;16.85;11.65;;;9.50;99.90;;;;;;4946201;28;20036;-47
2024/03/14 05:10:07;;;;;;;18.00;13.05;;;9.50;99.90;;;;;;4943084;28;20046;-50
2024/03/14 05:12:32;;;;;;;18.88;12.45;;;9.50;99.90;;;;;;4987693;28;20413;-47
2024/03/14 05:14:58;;;;;;;17.35;12.73;;;9.50;99.90;;;;;;4942818;28;20032;-47
2024/03/14 05:17:24;;;;;;;18.65;12.27;;;9.50;99.90;;;;;;4941775;28;20552;-46
2024/03/14 05:19:51;;;;;;;16.27;11.73;;;9.50;99.90;;;;;;4961184;28;20029;-46
2024/03/14 05:22:17;;;;;;;18.70;12.55;;;9.50;99.90;;;;;;4938828;28;20100;-48
2024/03/14 05:24:43;;;;;;;17.52;11.98;;;9.50;99.90;;;;;;4970219;28;20065;-50
2024/03/14 05:27:09;;;;;;;16.52;12.45;;;9.50;99.90;;;;;;4925661;28;20026;-46
2024/03/14 05:29:37;;;;;;;21.30;12.93;;;9.50;99.90;;;;;;4937008;28;20026;-49
2024/03/14 05:32:11;;;;;;;16.45;12.45;;;9.50;99.90;;;;;;4959718;28;20030;-48
2024/03/14 05:34:37;;;;;;;16.17;12.60;;;9.50;99.90;;;;;;4933293;28;20053;-51
2024/03/14 05:37:03;;;;;;;16.70;12.55;;;9.50;99.90;;;;;;4937822;28;21658;-50
2024/03/14 05:39:29;;;;;;;14.75;11.20;;;9.50;99.90;;;;;;4981034;28;20117;-49
2024/03/14 05:41:54;;;;;;;18.33;12.70;;;9.50;99.90;;;;;;4934783;28;20087;-47
2024/03/14 05:44:20;;;;;;;16.17;12.65;;;9.50;99.90;;;;;;4942275;28;20038;-53
2024/03/14 05:46:46;;;;;;;17.17;12.38;;;9.50;99.90;;;;;;4946730;28;20650;-51
2024/03/14 05:49:12;;;;;;;15.73;12.07;;;9.50;99.90;;;;;;4931825;28;20037;-50
2024/03/14 05:51:38;;;;;;;16.08;12.43;;;9.50;99.90;;;;;;4976764;28;20026;-51
2024/03/14 05:54:04;;;;;;;13.85;11.65;;;9.50;99.90;;;;;;4935576;28;20034;-49
2024/03/14 05:56:29;;;;;;;16.50;12.45;;;9.60;99.90;;;;;;4931032;28;20034;-50
2024/03/14 05:58:55;;;;;;;17.20;11.82;;;9.60;99.90;;;;;;4956959;28;20112;-47
2024/03/14 06:01:20;;;;;;;16.25;11.18;;;9.60;99.90;;;;;;4928101;28;20065;-45
2024/03/14 06:03:47;;;;;;;17.60;11.93;;;9.60;99.90;;;;;;4952000;28;20096;-56
2024/03/14 06:06:18;;;;;;;21.83;12.68;;;9.60;99.90;;;;;;4956858;28;20026;-46
2024/03/14 06:08:44;;;;;;;17.90;12.70;;;9.70;99.90;;;;;;4926643;28;20033;-47
2024/03/14 06:11:10;;;;;;;18.80;12.48;;;9.60;99.90;;;;;;4953581;28;20030;-49
2024/03/14 06:13:35;;;;;;;17.23;13.00;;;9.60;99.90;;;;;;4928076;28;20025;-48
2024/03/14 06:16:01;;;;;;;18.05;11.75;;;9.70;99.90;;;;;;4924910;28;20033;-46
2024/03/14 06:18:27;;;;;;;18.00;11.88;;;9.60;99.90;;;;;;4974055;28;20429;-51
2024/03/14 06:20:54;;;;;;;16.42;12.60;;;9.70;99.90;;;;;;4922661;28;20409;-49
2024/03/14 06:23:20;;;;;;;19.88;13.57;;;9.60;99.90;;;;;;4952393;28;20146;-52
2024/03/14 06:25:45;;;;;;;19.17;14.63;;;9.60;99.90;;;;;;4944108;28;20494;-49
2024/03/14 06:28:11;;;;;;;18.52;13.95;;;9.60;99.90;;;;;;4924279;28;20045;-51
2024/03/14 06:30:36;;;;;;;19.83;13.35;;;9.60;99.90;;;;;;4972438;28;20065;-50
2024/03/14 06:33:02;;;;;;;17.00;12.52;;;9.60;99.90;;;;;;4941044;28;20109;-47
2024/03/14 06:35:28;;;;;;;20.35;13.45;;;9.60;99.90;;;;;;4924331;28;21264;-50
2024/03/14 06:37:57;;;;;;;16.92;13.25;;;9.60;99.90;;;;;;4953997;28;20108;-46
2024/03/14 06:40:22;;;;;;;19.25;12.80;;;9.60;99.90;;;;;;4921832;28;20029;-50
2024/03/14 06:42:53;;;;;;;17.85;12.77;;;9.60;99.90;;;;;;4939654;28;20034;-57
2024/03/14 06:45:19;;;;;;;18.75;12.80;;;9.60;99.90;;;;;;4972249;28;20038;-48
2024/03/14 06:47:45;;;;;;;17.42;12.15;;;9.60;99.90;;;;;;4913680;28;20599;-49
2024/03/14 06:50:12;;;;;;;17.38;13.68;;;9.60;99.90;;;;;;4951158;28;20467;-50
2024/03/14 06:52:38;;;;;;;19.80;13.38;;;9.60;99.90;;;;;;4914396;28;20042;-50
2024/03/14 06:55:06;;;;;;;16.20;12.80;;;9.70;99.90;;;;;;4916287;28;21260;-49
2024/03/14 06:57:34;;;;;;;16.38;12.23;;;9.60;99.90;;;;;;4971279;28;20112;-50
2024/03/14 07:00:09;;;;;;;20.23;13.73;;;9.70;99.90;;;;;;4916829;28;20041;-49
2024/03/14 07:02:38;;;;;;;19.05;13.98;;;9.70;99.90;;;;;;4912683;28;20053;-51
2024/03/14 07:05:04;;;;;;;18.92;12.05;;;9.80;99.90;;;;;;4950815;28;20113;-48
2024/03/14 07:07:30;;;;;;;20.45;13.35;;;9.80;99.90;;;;;;4913849;28;20033;-52
2024/03/14 07:09:56;;;;;;;18.15;12.80;;;9.90;99.90;;;;;;4911833;28;20026;-46
2024/03/14 07:12:21;;;;;;;20.70;13.95;;;9.90;99.90;;;;;;4967649;28;20029;-49
2024/03/14 07:14:47;;;;;;;22.50;13.38;;;10.00;99.90;;;;;;4910307;28;20042;-47
2024/03/14 07:17:13;;;;;;;23.23;14.20;;;10.00;99.90;;;;;;4945321;28;20037;-48
2024/03/14 07:19:39;;;;;;;18.50;12.80;;;10.00;99.90;;;;;;4909819;28;20147;-47
2024/03/14 07:22:05;;;;;;;18.48;11.70;;;10.00;99.90;;;;;;4906372;28;22611;-46
2024/03/14 07:24:31;;;;;;;18.92;12.73;;;10.00;99.90;;;;;;4966499;28;20030;-47
2024/03/14 07:26:58;;;;;;;17.25;13.27;;;10.00;99.90;;;;;;4905139;28;20032;-48
2024/03/14 07:29:23;;;;;;;15.00;12.30;;;10.00;99.90;;;;;;4911115;28;20061;-54
2024/03/14 07:31:51;;;;;;;16.75;11.98;;;10.00;99.90;;;;;;4939598;28;20117;-46
2024/03/14 07:34:18;;;;;;;14.60;11.52;;;10.00;99.90;;;;;;4904601;28;20061;-50
2024/03/14 07:36:45;;;;;;;17.65;12.48;;;10.00;99.90;;;;;;4954874;28;20089;-54
2024/03/14 07:39:15;;;;;;;16.88;11.43;;;10.00;99.90;;;;;;4925672;28;20037;-49
2024/03/14 07:41:43;;;;;;;15.68;11.13;;;10.00;99.90;;;;;;4899598;28;21534;-48
2024/03/14 07:44:09;;;;;;;15.40;11.13;;;10.00;99.90;;;;;;4941481;28;20038;-48
2024/03/14 07:46:35;;;;;;;15.35;11.43;;;10.00;99.90;;;;;;4897636;28;20026;-51
2024/03/14 07:49:00;;;;;;;15.50;10.90;;;10.10;99.90;;;;;;4900005;28;20643;-49
2024/03/14 07:51:26;;;;;;;16.60;10.98;;;10.10;99.90;;;;;;4957605;28;20034;-47
2024/03/14 07:53:52;;;;;;;14.95;11.02;;;10.20;99.90;;;;;;4899715;28;20029;-50
2024/03/14 07:56:18;;;;;;;15.25;11.20;;;10.30;99.90;;;;;;4936782;28;20034;-56
2024/03/14 07:58:46;;;;;;;15.35;11.20;;;10.30;99.90;;;;;;4916885;28;20485;-47
2024/03/14 08:01:15;;;;;;;17.60;11.70;;;10.50;99.90;;;;;;4888901;28;21670;-49
2024/03/14 08:03:48;;;;;;;13.52;10.93;;;10.50;99.90;;;;;;4961291;28;20022;-51
2024/03/14 08:06:18;;;;;;;14.45;11.15;;;10.60;99.90;;;;;;4916979;28;20210;-50
2024/03/14 08:08:48;;;;;;;18.45;11.15;;;10.70;99.90;;;;;;4894264;28;21383;-51
2024/03/14 08:11:14;;;;;;;14.65;10.73;;;10.70;99.90;;;;;;4994527;28;20052;-50
2024/03/14 08:13:41;;;;;;;13.10;10.15;;;10.80;99.90;;;;;;4954034;28;20018;-45
2024/03/14 08:16:18;;;;;;;13.30;11.27;;;11.00;99.90;;;;;;4895109;28;21407;-48
2024/03/14 08:18:46;;;;;;;14.75;10.73;;;11.00;99.90;;;;;;4949719;28;20038;-49
2024/03/14 08:21:16;;;;;;;14.30;11.10;;;11.10;99.90;;;;;;4951909;28;20026;-46
2024/03/14 08:23:42;;;;;;;14.60;10.32;;;11.20;99.90;;;;;;4968214;28;20045;-52
2024/03/14 08:26:08;;;;;;;15.02;10.68;;;11.20;99.90;;;;;;4992146;28;20057;-46
2024/03/14 08:28:38;;;;;;;13.13;10.07;;;11.30;99.90;;;;;;4970551;28;20029;-47
2024/03/14 08:31:06;;;;;;;14.73;10.60;;;11.40;99.90;;;;;;4984153;28;20033;-48
2024/03/14 08:33:34;;;;;;;11.02;9.77;;;11.40;99.90;;;;;;4988561;28;20088;-46
2024/03/14 08:36:04;;;;;;;11.40;9.05;;;11.60;99.90;;;;;;4983729;28;20054;-46
2024/03/14 08:38:30;;;;;;;12.35;9.85;;;11.70;99.90;;;;;;4964205;28;20068;-46
2024/03/14 08:40:57;;;;;;;12.45;9.85;;;11.70;99.90;;;;;;4999082;28;20512;-49
2024/03/14 08:43:23;;;;;;;12.07;9.40;;;11.80;99.90;;;;;;4968597;28;20026;-47
2024/03/14 08:45:53;;;;;;;12.63;9.18;;;11.90;99.90;;;;;;4982652;28;20029;-48
2024/03/14 08:48:22;;;;;;;12.00;9.30;;;11.90;99.90;;;;;;4987028;28;20410;-48
2024/03/14 08:50:49;;;;;;;11.00;9.30;;;11.90;99.90;;;;;;4960407;28;20065;-47
2024/03/14 08:53:15;;;;;;;9.52;8.45;;;12.10;99.90;;;;;;4993089;28;20026;-48
2024/03/14 08:55:57;;;;;;;10.85;9.70;;;12.20;99.90;;;;;;4972784;28;20029;-50
2024/03/14 08:58:26;;;;;;;12.45;8.77;;;12.40;99.90;;;;;;4966290;28;20029;-47
2024/03/14 09:00:56;;;;;;;13.10;9.88;;;12.50;99.90;;;;;;4981209;28;20183;-48
2024/03/14 09:03:22;;;;;;;9.98;8.98;;;12.60;99.90;;;;;;4984085;28;20126;-50
2024/03/14 09:05:49;;;;;;;11.00;9.15;;;12.80;99.90;;;;;;4978129;28;20072;-51
2024/03/14 09:08:18;;;;;;;11.30;9.32;;;12.90;99.90;;;;;;4995482;28;20022;-47
2024/03/14 09:10:45;;;;;;;12.60;8.52;;;12.90;99.90;;;;;;4982684;28;20029;-55
2024/03/14 09:13:11;;;;;;;10.20;7.63;;;12.90;99.90;;;;;;4962923;28;20523;-48
2024/03/14 09:15:36;;;;;;;10.75;8.32;;;12.90;99.90;;;;;;4979129;28;20135;-51
2024/03/14 09:18:03;;;;;;;9.55;7.78;;;13.00;99.90;;;;;;4978712;28;20505;-48
2024/03/14 09:20:29;;;;;;;10.63;7.95;;;13.00;99.90;;;;;;4983777;28;20030;-51
2024/03/14 09:22:55;;;;;;;8.93;8.02;;;13.00;99.90;;;;;;4999113;28;20025;-47
2024/03/14 09:25:26;;;;;;;9.48;8.02;;;13.10;99.90;;;;;;4984518;28;20224;-48
2024/03/14 09:27:52;;;;;;;8.48;7.05;;;13.10;99.90;;;;;;4979544;28;20486;-47
2024/03/14 09:30:18;;;;;;;9.35;7.57;;;13.20;99.90;;;;;;4978818;28;20026;-51
2024/03/14 09:32:45;;;;;;;8.90;6.85;;;13.20;99.90;;;;;;4980767;28;20041;-49
2024/03/14 09:35:13;;;;;;;11.60;8.05;;;13.20;99.90;;;;;;4996920;28;20109;-47
2024/03/14 09:37:39;;;;;;;8.13;7.28;;;13.30;99.90;;;;;;4983114;28;20033;-49
2024/03/14 09:40:05;;;;;;;8.90;7.35;;;13.50;99.90;;;;;;4978689;28;20079;-49
2024/03/14 09:42:32;;;;;;;9.73;7.63;;;13.70;99.90;;;;;;4980069;28;20030;-48
2024/03/14 09:45:04;;;;;;;11.13;7.57;;;13.90;99.90;;;;;;4975362;28;20144;-50
2024/03/14 09:47:37;;;;;;;8.13;6.28;;;13.90;99.90;;;;;;4983059;28;20034;-47
2024/03/14 09:50:05;;;;;;;12.15;7.00;;;14.00;99.90;;;;;;4995640;28;20760;-50
2024/03/14 09:52:35;;;;;;;8.65;6.53;;;13.90;99.90;;;;;;4984504;28;20032;-49
2024/03/14 09:55:02;;;;;;;9.70;6.57;;;13.90;99.90;;;;;;4972993;28;20180;-49
2024/03/14 09:57:29;;;;;;;10.73;7.97;;;13.90;99.90;;;;;;4974697;28;20026;-48
2024/03/14 09:59:55;;;;;;;8.05;6.13;;;13.90;99.90;;;;;;4971886;28;20062;-50
2024/03/14 10:02:25;;;;;;;8.23;5.97;;;13.90;99.90;;;;;;4990313;28;20437;-56
2024/03/14 10:04:54;;;;;;;9.20;6.60;;;13.90;99.90;;;;;;4988986;28;20083;-48
2024/03/14 10:07:20;;;;;;;7.63;6.22;;;13.90;99.90;;;;;;4985025;28;20386;-46
2024/03/14 10:09:45;;;;;;;7.03;5.90;;;13.90;99.90;;;;;;4978665;28;20482;-49
2024/03/14 10:12:12;;;;;;;10.30;7.15;;;13.90;99.90;;;;;;4973067;28;20041;-46
2024/03/14 10:14:40;;;;;;;7.72;6.88;;;14.10;99.90;;;;;;4977343;28;21932;-49
2024/03/14 10:17:07;;;;;;;7.40;6.55;;;14.20;99.90;;;;;;4999902;28;21610;-45
2024/03/14 10:19:35;;;;;;;7.63;6.00;;;14.30;99.90;;;;;;5008148;28;20075;-47
2024/03/14 10:22:01;;;;;;;8.45;6.05;;;14.40;99.90;;;;;;4999160;28;20738;-47
2024/03/14 10:24:30;;;;;;;9.55;6.60;;;14.60;99.90;;;;;;4998456;28;20054;-47
2024/03/14 10:26:56;;;;;;;6.78;5.80;;;14.70;99.90;;;;;;4999247;28;20029;-48
2024/03/14 10:29:22;;;;;;;7.47;6.68;;;14.80;99.90;;;;;;4995221;28;20430;-47
2024/03/14 10:31:49;;;;;;;8.80;6.15;;;14.70;99.90;;;;;;4995221;28;20417;-55
2024/03/14 10:34:15;;;;;;;9.63;5.78;;;14.70;99.90;;;;;;5005680;28;20034;-48
2024/03/14 10:36:43;;;;;;;7.88;6.18;;;14.80;99.90;;;;;;4994593;28;20503;-46
2024/03/14 10:39:16;;;;;;;7.07;6.00;;;14.70;99.90;;;;;;4998643;28;20036;-47
2024/03/14 10:41:51;;;;;;;6.97;5.05;;;14.80;99.90;;;;;;4995959;28;20049;-46
2024/03/14 10:44:19;;;;;;;11.23;5.67;;;14.80;99.90;;;;;;4995348;28;20046;-48
2024/03/14 10:46:50;;;;;;;6.93;5.55;;;14.90;99.90;;;;;;5000834;28;20025;-53
2024/03/14 10:49:20;;;;;;;7.25;5.47;;;15.00;99.90;;;;;;5003244;28;20038;-47
2024/03/14 10:51:51;;;;;;;7.43;5.47;;;15.20;99.90;;;;;;4991810;28;20057;-47
2024/03/14 10:54:21;;;;;;;7.75;5.53;;;15.30;99.90;;;;;;4998349;28;20065;-45
2024/03/14 10:56:49;;;;;;;6.45;4.72;;;15.30;99.90;;;;;;4995601;28;20064;-46
2024/03/14 10:59:19;;;;;;;5.13;4.63;;;15.40;99.90;;;;;;4993737;28;20469;-46
2024/03/14 11:01:54;;;;;;;5.47;4.85;;;15.40;99.90;;;;;;4998876;28;20045;-54
2024/03/14 11:04:23;;;;;;;6.55;5.35;;;15.30;99.90;;;;;;5004665;28;20041;-48
2024/03/14 11:06:51;;;;;;;5.95;5.22;;;15.30;99.90;;;;;;4995761;28;20128;-48
2024/03/14 11:09:25;;;;;;;7.15;5.18;;;15.30;99.90;;;;;;4996664;28;20036;-48
2024/03/14 11:11:55;;;;;;;5.80;4.68;;;15.20;99.90;;;;;;4996533;28;20021;-46
2024/03/14 11:14:40;;;;;;;4.80;4.10;;;15.20;99.90;;;;;;4991972;28;20022;-46
2024/03/14 11:17:10;;;;;;;6.05;4.05;;;15.20;99.90;;;;;;4994844;28;20112;-45
2024/03/14 11:19:40;;;;;;;5.50;4.40;;;15.30;99.90;;;;;;5005363;28;20596;-47
2024/03/14 11:22:08;;;;;;;4.30;3.90;;;15.30;99.90;;;;;;4990827;28;20026;-48
2024/03/14 11:24:34;;;;;;;7.10;4.80;;;15.40;99.90;;;;;;4986836;28;20076;-48
2024/03/14 11:27:04;;;;;;;6.35;4.45;;;15.40;99.90;;;;;;4996620;28;20477;-48
2024/03/14 11:29:33;;;;;;;6.50;5.03;;;15.40;99.90;;;;;;4987652;28;20030;-45
2024/03/14 11:32:23;;;;;;;5.13;4.28;;;15.40;99.90;;;;;;4988808;28;20599;-46
2024/03/14 11:34:49;;;;;;;6.45;4.47;;;15.30;99.90;;;;;;4989740;28;20502;-48
2024/03/14 11:37:16;;;;;;;5.13;4.63;;;15.30;99.90;;;;;;5000099;28;20087;-47
2024/03/14 11:39:46;;;;;;;4.40;3.83;;;15.30;99.90;;;;;;4986120;28;20029;-48
2024/03/14 11:42:16;;;;;;;4.20;3.78;;;15.30;99.90;;;;;;4994839;28;20037;-49
2024/03/14 11:44:44;;;;;;;4.47;4.07;;;15.30;99.90;;;;;;4988534;28;20029;-47
2024/03/14 11:47:19;;;;;;;5.63;4.00;;;15.30;99.90;;;;;;4985983;28;20034;-48
2024/03/14 11:49:49;;;;;;;5.07;4.00;;;15.30;99.90;;;;;;4995643;28;20034;-56
2024/03/14 11:52:15;;;;;;;4.57;3.55;;;15.40;99.90;;;;;;4992615;28;20672;-46
2024/03/14 11:54:42;;;;;;;5.60;4.50;;;15.40;99.90;;;;;;4985019;28;20037;-46
2024/03/14 11:57:16;;;;;;;5.05;4.25;;;15.40;99.90;;;;;;4990083;28;20040;-49
2024/03/14 11:59:42;;;;;;;6.50;5.00;;;15.60;99.90;;;;;;4985599;28;20045;-49
2024/03/14 12:02:10;;;;;;;4.75;4.03;;;15.70;99.90;;;;;;4984378;28;20030;-49
2024/03/14 12:04:36;;;;;;;5.18;4.22;;;15.80;99.90;;;;;;5000643;28;20038;-48
2024/03/14 12:07:03;;;;;;;4.53;4.05;;;15.90;99.90;;;;;;4986490;28;20037;-47
2024/03/14 12:09:33;;;;;;;8.07;4.05;;;15.90;99.90;;;;;;4981091;28;20032;-51
2024/03/14 12:11:59;;;;;;;6.18;4.18;;;16.10;99.90;;;;;;4992802;28;20479;-46
2024/03/14 12:14:24;;;;;;;5.68;4.13;;;16.10;99.90;;;;;;4983888;28;20144;-48
2024/03/14 12:16:50;;;;;;;4.88;3.83;;;16.10;99.90;;;;;;4988033;28;20029;-49
2024/03/14 12:19:16;;;;;;;5.03;4.00;;;16.10;99.90;;;;;;4993294;28;20061;-50
2024/03/14 12:21:43;;;;;;;5.57;4.47;;;16.10;99.90;;;;;;4978386;28;20034;-46
2024/03/14 12:24:15;;;;;;;4.18;3.78;;;16.10;99.90;;;;;;4991778;28;20036;-49
2024/03/14 12:26:42;;;;;;;4.65;4.05;;;16.10;99.90;;;;;;4980033;28;20025;-49
2024/03/14 12:29:09;;;;;;;4.82;4.10;;;16.10;99.90;;;;;;4978839;28;20037;-50
2024/03/14 12:31:35;;;;;;;7.40;4.78;;;16.10;99.90;;;;;;4996332;28;20028;-46
2024/03/14 12:34:03;;;;;;;7.50;4.53;;;16.20;99.90;;;;;;4980508;28;20033;-48
2024/03/14 12:36:30;;;;;;;6.60;4.47;;;16.20;99.90;;;;;;4981552;28;20068;-48
2024/03/14 12:38:56;;;;;;;5.72;4.10;;;16.30;99.90;;;;;;4992006;28;20014;-48
2024/03/14 12:41:23;;;;;;;5.07;4.40;;;16.40;99.90;;;;;;4979939;28;20149;-51